Costa Magica — IBQQ — position and weather

sailwx.info

Track history (hours):
 
Tides and Currents Weather Stations Pressure Air Temp Water Temp Dewpoint Dewpoint Depression Visibility Wind Speed Wind Dir Waves Ship Positions

Costa Magica

Last reported at 2018-Jan-20 08:25 UTC. Time now 2018-Jan-23 19:31 UTC.
Position N 15°15' W 061°42'.

Type: Ship. MMSI: 247113300.

Date/timePositionNaut miles runAvg speedWind from/ knotsBaromVisibWave heightAir tempDewpointWater temp
2018-Jan-20 08:25N 15°15' W 061°42'511.9
2018-Jan-20 08:00N 15°19' W 061°40'612.0
2018-Jan-20 07:30N 15°25' W 061°39'712.3
2018-Jan-20 06:58N 15°31' W 061°36'612.2
2018-Jan-20 06:30N 15°37' W 061°34'611.9
2018-Jan-20 06:00N 15°42' W 061°32'2011.6
2018-Jan-20 04:16N 16°02' W 061°31'312.6
2018-Jan-20 04:00N 16°06' W 061°31'4 9.0
2018-Jan-20 03:30N 16°10' W 061°33'4 8.7
2018-Jan-20 03:00N 16°14' W 061°32'0 0.2
2018-Jan-20 02:28N 16°14' W 061°32'0 0.0
2018-Jan-20 01:58N 16°14' W 061°32'0 0.0
2018-Jan-20 01:28N 16°14' W 061°32'0 0.0
2018-Jan-20 00:58N 16°14' W 061°32'0 0.0
2018-Jan-20 00:28N 16°14' W 061°32'0 0.0
2018-Jan-19 23:58N 16°14' W 061°32'0 0.0
2018-Jan-19 23:28N 16°14' W 061°32'0 0.0
2018-Jan-19 22:58N 16°14' W 061°32'0 0.0
2018-Jan-19 22:28N 16°14' W 061°32'0 0.0
2018-Jan-19 21:58N 16°14' W 061°32'0 0.0
2018-Jan-19 21:28N 16°14' W 061°32'0 0.0
2018-Jan-19 20:55N 16°14' W 061°32'0 0.0
2018-Jan-19 20:28N 16°14' W 061°32'0 0.0
2018-Jan-19 19:58N 16°14' W 061°32'0 0.0
2018-Jan-19 19:28N 16°14' W 061°32'0 0.0
2018-Jan-19 18:58N 16°14' W 061°32'0 0.0
2018-Jan-19 18:28N 16°14' W 061°32'0 0.0
2018-Jan-19 17:58N 16°14' W 061°32'0 0.0
2018-Jan-19 17:28N 16°14' W 061°32'0 0.0
2018-Jan-19 16:58N 16°14' W 061°32'0 0.0
2018-Jan-19 16:28N 16°14' W 061°32'0 0.0
2018-Jan-19 15:58N 16°14' W 061°32'0 0.0
2018-Jan-19 15:28N 16°14' W 061°32'0 0.0
2018-Jan-19 14:58N 16°14' W 061°32'0 0.0
2018-Jan-19 14:28N 16°14' W 061°32'0 0.0
2018-Jan-19 13:58N 16°14' W 061°32'0 0.0
2018-Jan-19 13:28N 16°14' W 061°32'0 0.0
2018-Jan-19 12:55N 16°14' W 061°32'0 0.0
2018-Jan-19 12:28N 16°14' W 061°32'0 0.0
2018-Jan-19 11:58N 16°14' W 061°32'0 0.0
2018-Jan-19 11:30N 16°14' W 061°32'1 1.8
2018-Jan-19 11:00N 16°13' W 061°32'4 7.8
2018-Jan-19 10:30N 16°09' W 061°31'4 7.9
2018-Jan-19 10:00N 16°07' W 061°28'611.3
2018-Jan-19 09:30N 16°01' W 061°29'611.0
2018-Jan-19 09:00N 15°56' W 061°30'611.0
2018-Jan-19 08:27N 15°50' W 061°30'510.8
2018-Jan-19 07:59N 15°47' W 061°34'611.4
2018-Jan-19 07:30N 15°44' W 061°39'711.5
2018-Jan-19 06:53N 15°39' W 061°44'58 9.3
2018-Jan-19 00:41N 14°43' W 061°32'212.7
2018-Jan-19 00:29N 14°41' W 061°30'612.8
2018-Jan-19 00:00N 14°38' W 061°25'712.4
2018-Jan-18 23:29N 14°35' W 061°19'812.1
2018-Jan-18 22:51N 14°35' W 061°11'511.9
2018-Jan-18 22:27N 14°35' W 061°06'2 1.5
2018-Jan-18 20:49N 14°36' W 061°04'0 0.0
2018-Jan-18 20:13N 14°36' W 061°04'0 0.0
2018-Jan-18 19:58N 14°36' W 061°04'0 0.0
2018-Jan-18 19:25N 14°36' W 061°04'0 0.0
2018-Jan-18 18:58N 14°36' W 061°04'0 0.0
2018-Jan-18 18:25N 14°36' W 061°04'0 0.0
2018-Jan-18 17:58N 14°36' W 061°04'0 0.0
2018-Jan-18 17:25N 14°36' W 061°04'0 0.0
2018-Jan-18 16:58N 14°36' W 061°04'0 0.0
2018-Jan-18 16:28N 14°36' W 061°04'0 0.0
2018-Jan-18 15:58N 14°36' W 061°04'0 0.0
2018-Jan-18 15:25N 14°36' W 061°04'0 0.0
2018-Jan-18 14:55N 14°36' W 061°04'0 0.0
2018-Jan-18 14:22N 14°36' W 061°04'0 0.0
2018-Jan-18 13:58N 14°36' W 061°04'0 0.0
2018-Jan-18 13:28N 14°36' W 061°04'0 0.0
2018-Jan-18 12:58N 14°36' W 061°04'0 0.0
2018-Jan-18 12:28N 14°36' W 061°04'0 0.0
2018-Jan-18 11:58N 14°36' W 061°04'1 1.1
2018-Jan-18 11:30N 14°36' W 061°04'2 4.0
2018-Jan-18 11:00N 14°35' W 061°06'610.9
2018-Jan-18 10:30N 14°34' W 061°11'612.2
2018-Jan-18 10:00N 14°34' W 061°18'611.8
2018-Jan-18 09:30N 14°33' W 061°24'  
2018-Jan-12 14:59N 16°14' W 061°32'0 0.0
2018-Jan-12 14:29N 16°14' W 061°32'0 0.0
2018-Jan-12 13:59N 16°14' W 061°32'0 0.0
2018-Jan-12 13:29N 16°14' W 061°32'0 0.0
2018-Jan-12 12:59N 16°14' W 061°32'0 0.0
2018-Jan-12 12:30N 16°14' W 061°32'0 0.0
2018-Jan-12 12:00N 16°14' W 061°32'0 0.1
2018-Jan-12 11:31N 16°14' W 061°32'2 3.5
2018-Jan-12 11:01N 16°13' W 061°32'3 6.5
2018-Jan-12 10:30N 16°09' W 061°31'4 9.2
2018-Jan-12 10:01N 16°05' W 061°30'611.2
2018-Jan-12 09:31N 15°59' W 061°31'611.6
2018-Jan-12 08:58N 15°53' W 061°32'511.6
2018-Jan-12 08:31N 15°48' W 061°34'611.1
2018-Jan-12 07:57N 15°44' W 061°38'511.1
2018-Jan-12 07:30N 15°41' W 061°43'511.1
2018-Jan-12 07:01N 15°37' W 061°47'56 8.8
2018-Jan-12 00:43N 14°43' W 061°33'611.9
2018-Jan-12 00:13N 14°40' W 061°28'311.8
2018-Jan-12 00:00N 14°38' W 061°26'1611.7
2018-Jan-11 22:39N 14°35' W 061°10'212.2
2018-Jan-11 22:30N 14°35' W 061°08'4 1.2
2018-Jan-11 18:42N 14°36' W 061°04'0 0.0
2018-Jan-11 16:42N 14°36' W 061°04'0 0.0
2018-Jan-11 16:30N 14°36' W 061°04'0 0.0
2018-Jan-11 15:57N 14°36' W 061°04'0 0.0
2018-Jan-11 15:30N 14°36' W 061°04'0 0.0
2018-Jan-11 15:00N 14°36' W 061°04'0 0.0
2018-Jan-11 11:29N 14°36' W 061°04'2 4.3
2018-Jan-11 10:59N 14°35' W 061°06'4 8.0
2018-Jan-11 10:30N 14°36' W 061°09'510.2
2018-Jan-11 10:00N 14°35' W 061°15'511.0
2018-Jan-11 09:30N 14°35' W 061°20'510.6
2018-Jan-11 09:00N 14°35' W 061°26'610.7
2018-Jan-11 08:27N 14°35' W 061°32'39 4.1
2018-Jan-10 22:58N 14°02' W 061°10'612.2
2018-Jan-10 22:28N 14°02' W 061°04'4 1.0
2018-Jan-10 18:38N 14°01' W 060°60'0 0.0
2018-Jan-10 18:23N 14°01' W 060°60'0 0.0
2018-Jan-10 11:14N 14°01' W 060°60'0 0.0
2018-Jan-10 10:59N 14°01' W 060°60'0 0.0
2018-Jan-10 10:25N 14°01' W 060°60'1 1.8
2018-Jan-10 10:00N 14°01' W 061°00'5 9.3
2018-Jan-10 09:30N 14°03' W 061°05'711.1
2018-Jan-10 08:52N 14°01' W 061°12'511.2
2018-Jan-10 08:26N 13°59' W 061°16'  
Track history (hours):
 
Tides and Currents Weather Stations Pressure Air Temp Water Temp Dewpoint Dewpoint Depression Visibility Wind Speed Wind Dir Waves Ship Positions

Costa Magica

Last reported at 2018-Jan-20 08:25 UTC. Time now 2018-Jan-23 19:31 UTC.
Position N 15°15' W 061°42'.

Type: Ship. MMSI: 247113300.

Date/timePositionNaut miles runAvg speedWind from/ knotsBaromVisibWave heightAir tempDewpointWater temp
2018-Jan-20 08:25N 15°15' W 061°42'511.9
2018-Jan-20 08:00N 15°19' W 061°40'612.0
2018-Jan-20 07:30N 15°25' W 061°39'712.3
2018-Jan-20 06:58N 15°31' W 061°36'612.2
2018-Jan-20 06:30N 15°37' W 061°34'611.9
2018-Jan-20 06:00N 15°42' W 061°32'2011.6
2018-Jan-20 04:16N 16°02' W 061°31'312.6
2018-Jan-20 04:00N 16°06' W 061°31'4 9.0
2018-Jan-20 03:30N 16°10' W 061°33'4 8.7
2018-Jan-20 03:00N 16°14' W 061°32'0 0.2
2018-Jan-20 02:28N 16°14' W 061°32'0 0.0
2018-Jan-20 01:58N 16°14' W 061°32'0 0.0
2018-Jan-20 01:28N 16°14' W 061°32'0 0.0
2018-Jan-20 00:58N 16°14' W 061°32'0 0.0
2018-Jan-20 00:28N 16°14' W 061°32'0 0.0
2018-Jan-19 23:58N 16°14' W 061°32'0 0.0
2018-Jan-19 23:28N 16°14' W 061°32'0 0.0
2018-Jan-19 22:58N 16°14' W 061°32'0 0.0
2018-Jan-19 22:28N 16°14' W 061°32'0 0.0
2018-Jan-19 21:58N 16°14' W 061°32'0 0.0
2018-Jan-19 21:28N 16°14' W 061°32'0 0.0
2018-Jan-19 20:55N 16°14' W 061°32'0 0.0
2018-Jan-19 20:28N 16°14' W 061°32'0 0.0
2018-Jan-19 19:58N 16°14' W 061°32'0 0.0
2018-Jan-19 19:28N 16°14' W 061°32'0 0.0
2018-Jan-19 18:58N 16°14' W 061°32'0 0.0
2018-Jan-19 18:28N 16°14' W 061°32'0 0.0
2018-Jan-19 17:58N 16°14' W 061°32'0 0.0
2018-Jan-19 17:28N 16°14' W 061°32'0 0.0
2018-Jan-19 16:58N 16°14' W 061°32'0 0.0
2018-Jan-19 16:28N 16°14' W 061°32'0 0.0
2018-Jan-19 15:58N 16°14' W 061°32'0 0.0
2018-Jan-19 15:28N 16°14' W 061°32'0 0.0
2018-Jan-19 14:58N 16°14' W 061°32'0 0.0
2018-Jan-19 14:28N 16°14' W 061°32'0 0.0
2018-Jan-19 13:58N 16°14' W 061°32'0 0.0
2018-Jan-19 13:28N 16°14' W 061°32'0 0.0
2018-Jan-19 12:55N 16°14' W 061°32'0 0.0
2018-Jan-19 12:28N 16°14' W 061°32'0 0.0
2018-Jan-19 11:58N 16°14' W 061°32'0 0.0
2018-Jan-19 11:30N 16°14' W 061°32'1 1.8
2018-Jan-19 11:00N 16°13' W 061°32'4 7.8
2018-Jan-19 10:30N 16°09' W 061°31'4 7.9
2018-Jan-19 10:00N 16°07' W 061°28'611.3
2018-Jan-19 09:30N 16°01' W 061°29'611.0
2018-Jan-19 09:00N 15°56' W 061°30'611.0
2018-Jan-19 08:27N 15°50' W 061°30'510.8
2018-Jan-19 07:59N 15°47' W 061°34'611.4
2018-Jan-19 07:30N 15°44' W 061°39'711.5
2018-Jan-19 06:53N 15°39' W 061°44'58 9.3
2018-Jan-19 00:41N 14°43' W 061°32'212.7
2018-Jan-19 00:29N 14°41' W 061°30'612.8
2018-Jan-19 00:00N 14°38' W 061°25'712.4
2018-Jan-18 23:29N 14°35' W 061°19'812.1
2018-Jan-18 22:51N 14°35' W 061°11'511.9
2018-Jan-18 22:27N 14°35' W 061°06'2 1.5
2018-Jan-18 20:49N 14°36' W 061°04'0 0.0
2018-Jan-18 20:13N 14°36' W 061°04'0 0.0
2018-Jan-18 19:58N 14°36' W 061°04'0 0.0
2018-Jan-18 19:25N 14°36' W 061°04'0 0.0
2018-Jan-18 18:58N 14°36' W 061°04'0 0.0
2018-Jan-18 18:25N 14°36' W 061°04'0 0.0
2018-Jan-18 17:58N 14°36' W 061°04'0 0.0
2018-Jan-18 17:25N 14°36' W 061°04'0 0.0
2018-Jan-18 16:58N 14°36' W 061°04'0 0.0
2018-Jan-18 16:28N 14°36' W 061°04'0 0.0
2018-Jan-18 15:58N 14°36' W 061°04'0 0.0
2018-Jan-18 15:25N 14°36' W 061°04'0 0.0
2018-Jan-18 14:55N 14°36' W 061°04'0 0.0
2018-Jan-18 14:22N 14°36' W 061°04'0 0.0
2018-Jan-18 13:58N 14°36' W 061°04'0 0.0
2018-Jan-18 13:28N 14°36' W 061°04'0 0.0
2018-Jan-18 12:58N 14°36' W 061°04'0 0.0
2018-Jan-18 12:28N 14°36' W 061°04'0 0.0
2018-Jan-18 11:58N 14°36' W 061°04'1 1.1
2018-Jan-18 11:30N 14°36' W 061°04'2 4.0
2018-Jan-18 11:00N 14°35' W 061°06'610.9
2018-Jan-18 10:30N 14°34' W 061°11'612.2
2018-Jan-18 10:00N 14°34' W 061°18'611.8
2018-Jan-18 09:30N 14°33' W 061°24'  
2018-Jan-12 14:59N 16°14' W 061°32'0 0.0
2018-Jan-12 14:29N 16°14' W 061°32'0 0.0
2018-Jan-12 13:59N 16°14' W 061°32'0 0.0
2018-Jan-12 13:29N 16°14' W 061°32'0 0.0
2018-Jan-12 12:59N 16°14' W 061°32'0 0.0
2018-Jan-12 12:30N 16°14' W 061°32'0 0.0
2018-Jan-12 12:00N 16°14' W 061°32'0 0.1
2018-Jan-12 11:31N 16°14' W 061°32'2 3.5
2018-Jan-12 11:01N 16°13' W 061°32'3 6.5
2018-Jan-12 10:30N 16°09' W 061°31'4 9.2
2018-Jan-12 10:01N 16°05' W 061°30'611.2
2018-Jan-12 09:31N 15°59' W 061°31'611.6
2018-Jan-12 08:58N 15°53' W 061°32'511.6
2018-Jan-12 08:31N 15°48' W 061°34'611.1
2018-Jan-12 07:57N 15°44' W 061°38'511.1
2018-Jan-12 07:30N 15°41' W 061°43'511.1
2018-Jan-12 07:01N 15°37' W 061°47'56 8.8
2018-Jan-12 00:43N 14°43' W 061°33'611.9
2018-Jan-12 00:13N 14°40' W 061°28'311.8
2018-Jan-12 00:00N 14°38' W 061°26'1611.7
2018-Jan-11 22:39N 14°35' W 061°10'212.2
2018-Jan-11 22:30N 14°35' W 061°08'4 1.2
2018-Jan-11 18:42N 14°36' W 061°04'0 0.0
2018-Jan-11 16:42N 14°36' W 061°04'0 0.0
2018-Jan-11 16:30N 14°36' W 061°04'0 0.0
2018-Jan-11 15:57N 14°36' W 061°04'0 0.0
2018-Jan-11 15:30N 14°36' W 061°04'0 0.0
2018-Jan-11 15:00N 14°36' W 061°04'0 0.0
2018-Jan-11 11:29N 14°36' W 061°04'2 4.3
2018-Jan-11 10:59N 14°35' W 061°06'4 8.0
2018-Jan-11 10:30N 14°36' W 061°09'510.2
2018-Jan-11 10:00N 14°35' W 061°15'511.0
2018-Jan-11 09:30N 14°35' W 061°20'510.6
2018-Jan-11 09:00N 14°35' W 061°26'610.7
2018-Jan-11 08:27N 14°35' W 061°32'39 4.1
2018-Jan-10 22:58N 14°02' W 061°10'612.2
2018-Jan-10 22:28N 14°02' W 061°04'4 1.0
2018-Jan-10 18:38N 14°01' W 060°60'0 0.0
2018-Jan-10 18:23N 14°01' W 060°60'0 0.0
2018-Jan-10 11:14N 14°01' W 060°60'0 0.0
2018-Jan-10 10:59N 14°01' W 060°60'0 0.0
2018-Jan-10 10:25N 14°01' W 060°60'1 1.8
2018-Jan-10 10:00N 14°01' W 061°00'5 9.3
2018-Jan-10 09:30N 14°03' W 061°05'711.1
2018-Jan-10 08:52N 14°01' W 061°12'511.2
2018-Jan-10 08:26N 13°59' W 061°16'  

Dump ship's entire track history